Time;durP1;ratioP1;P1;durP2;ratioP2;P2;SDS_P1;SDS_P2;PMS_P1;PMS_P2;Temp;Humidity;BMP_temperature;BMP_pressure;BME280_temperature;BME280_humidity;BME280_pressure;Samples;Min_cycle;Max_cycle;Signal;HPM_P1;HPM_P2
2022/07/08 00:02:25;;;;;;;2.03;1.30;;;;;;;16.90;67.18;99743.66;4977878;28;20211;-49
2022/07/08 00:04:53;;;;;;;1.40;1.13;;;;;;;16.86;67.79;99746.78;4978613;28;20228;-49
2022/07/08 00:07:19;;;;;;;5.43;1.50;;;;;;;16.82;68.60;99741.03;4979491;28;20230;-49
2022/07/08 00:09:46;;;;;;;1.57;1.20;;;;;;;16.82;68.07;99743.66;4976148;28;20312;-50
2022/07/08 00:12:14;;;;;;;3.37;1.20;;;;;;;16.82;67.97;99744.47;4976280;28;20308;-49
2022/07/08 00:14:40;;;;;;;2.37;1.40;;;;;;;16.80;68.40;99746.44;4976850;28;20233;-50
2022/07/08 00:17:28;;;;;;;2.67;1.33;;;;;;;16.76;68.73;99774.13;4975294;28;20233;-50
2022/07/08 00:19:54;;;;;;;5.47;1.40;;;;;;;16.66;65.35;99773.47;4976241;28;20917;-50
2022/07/08 00:22:22;;;;;;;11.83;2.10;;;;;;;16.49;63.94;99783.97;4979440;28;20270;-50
2022/07/08 00:24:48;;;;;;;12.53;1.57;;;;;;;16.38;60.94;99785.09;4977924;28;20525;-49
2022/07/08 00:27:15;;;;;;;7.30;1.90;;;;;;;16.35;60.85;99780.16;4977232;28;20616;-49
2022/07/08 00:29:42;;;;;;;6.60;1.93;;;;;;;16.32;61.01;99793.63;4976894;28;20241;-49
2022/07/08 00:32:10;;;;;;;9.83;2.00;;;;;;;16.22;59.63;99803.47;4986118;28;20659;-49
2022/07/08 00:34:38;;;;;;;9.30;2.00;;;;;;;16.13;58.84;99799.16;4986911;28;20227;-49
2022/07/08 00:37:06;;;;;;;8.07;1.83;;;;;;;16.11;59.13;99796.69;4981843;28;20227;-49
2022/07/08 00:39:33;;;;;;;7.30;1.80;;;;;;;16.04;58.42;99808.84;4984429;28;20205;-49
2022/07/08 00:42:01;;;;;;;6.60;1.73;;;;;;;16.02;58.64;99808.16;4983942;28;20242;-49
2022/07/08 00:44:28;;;;;;;8.03;1.90;;;;;;;15.95;59.04;99807.97;4983006;28;20205;-49
2022/07/08 00:46:55;;;;;;;12.23;2.00;;;;;;;15.91;59.01;99807.47;4966810;28;20735;-49
2022/07/08 00:49:23;;;;;;;7.73;1.70;;;;;;;15.91;59.04;99806.63;4984585;28;20198;-50
2022/07/08 00:51:52;;;;;;;9.50;2.10;;;;;;;15.91;59.91;99806.63;4982839;28;20303;-49
2022/07/08 00:54:22;;;;;;;8.70;2.23;;;;;;;15.87;60.36;99811.38;4984193;28;20198;-49
2022/07/08 00:56:49;;;;;;;6.63;2.10;;;;;;;15.93;58.56;99807.28;4982771;28;20197;-49
2022/07/08 00:59:16;;;;;;;8.30;2.27;;;;;;;15.92;58.08;99817.00;4984059;28;20597;-49
2022/07/08 01:01:44;;;;;;;9.43;1.80;;;;;;;15.92;58.12;99817.00;4984277;28;20270;-49
2022/07/08 01:04:10;;;;;;;8.70;2.37;;;;;;;15.92;57.89;99814.38;4983251;28;20218;-49
2022/07/08 01:06:37;;;;;;;10.93;2.10;;;;;;;15.84;58.78;99814.28;4983400;28;20230;-50
2022/07/08 01:09:07;;;;;;;9.03;2.03;;;;;;;15.79;58.25;99814.78;4983874;28;20204;-49
2022/07/08 01:11:35;;;;;;;6.67;1.90;;;;;;;15.79;58.51;99809.50;4967774;28;20221;-50
2022/07/08 01:14:02;;;;;;;12.17;2.17;;;;;;;15.75;59.20;99809.97;4982378;28;20322;-49
2022/07/08 01:16:28;;;;;;;9.63;2.03;;;;;;;15.81;57.86;99811.16;4982500;28;20799;-49
2022/07/08 01:18:56;;;;;;;11.70;2.93;;;;;;;15.75;57.32;99813.44;4966214;28;20286;-49
2022/07/08 01:21:24;;;;;;;8.10;2.40;;;;;;;15.79;57.41;99813.94;4984039;28;20238;-51
2022/07/08 01:23:52;;;;;;;8.97;2.67;;;;;;;15.73;57.25;99831.19;4982203;28;20231;-49
2022/07/08 01:26:19;;;;;;;7.97;2.73;;;;;;;15.73;57.09;99828.56;4983001;28;20549;-49
2022/07/08 01:28:46;;;;;;;10.77;3.50;;;;;;;15.74;56.06;99827.56;4983147;28;20654;-49
2022/07/08 01:31:12;;;;;;;9.50;3.53;;;;;;;15.65;55.75;99831.94;4982314;28;20631;-48
2022/07/08 01:33:40;;;;;;;12.50;3.57;;;;;;;15.65;55.89;99842.47;4982545;28;20230;-49
2022/07/08 01:36:07;;;;;;;7.67;4.00;;;;;;;15.56;56.22;99845.22;4983999;28;20551;-48
2022/07/08 01:38:37;;;;;;;12.17;4.73;;;;;;;15.61;55.23;99845.56;4986644;28;20204;-48
2022/07/08 01:41:04;;;;;;;10.27;3.77;;;;;;;15.55;55.28;99844.38;4984850;28;20539;-48
2022/07/08 01:43:31;;;;;;;12.10;4.30;;;;;;;15.46;55.59;99838.22;4987669;28;20299;-48
2022/07/08 01:45:58;;;;;;;9.53;4.30;;;;;;;15.46;55.32;99850.53;4992710;28;20198;-49
2022/07/08 01:48:26;;;;;;;8.63;4.23;;;;;;;15.46;54.58;99850.53;4980657;28;20677;-48
2022/07/08 01:50:53;;;;;;;10.37;4.60;;;;;;;15.43;54.03;99845.59;4973529;28;20238;-49
2022/07/08 01:53:20;;;;;;;8.07;4.23;;;;;;;15.35;54.48;99844.56;4973195;28;20209;-49
2022/07/08 01:55:49;;;;;;;8.27;4.07;;;;;;;15.35;54.06;99843.72;4973474;28;20202;-49
2022/07/08 01:58:17;;;;;;;12.20;4.43;;;;;;;15.34;54.35;99842.91;4976421;28;20666;-50
2022/07/08 02:00:44;;;;;;;9.57;4.23;;;;;;;15.29;54.44;99839.06;4975233;28;20288;-48
2022/07/08 02:03:12;;;;;;;13.17;4.20;;;;;;;15.19;54.62;99842.59;4992400;28;20294;-49
2022/07/08 02:05:38;;;;;;;7.97;4.17;;;;;;;15.20;55.34;99840.81;4992806;28;20744;-49
2022/07/08 02:08:06;;;;;;;10.13;4.37;;;;;;;15.15;54.75;99845.69;4992641;28;20619;-49
2022/07/08 02:12:18;;;;;;;9.20;4.13;;;;;;;15.11;55.39;99839.91;4992651;28;20219;-49
2022/07/08 02:13:21;;;;;;;10.50;4.50;;;;;;;15.07;56.59;99838.53;4974685;28;20227;-51
2022/07/08 02:15:49;;;;;;;9.13;4.33;;;;;;;15.10;55.27;99833.00;4974906;28;20201;-49
2022/07/08 02:18:34;;;;;;;8.40;3.43;;;;;;;15.08;55.45;99827.06;4993110;28;20206;-49
2022/07/08 02:21:01;;;;;;;6.63;3.77;;;;;;;15.15;54.64;99827.28;4992592;28;20228;-49
2022/07/08 02:23:28;;;;;;;10.13;3.83;;;;;;;15.14;54.66;99830.91;4992008;28;20215;-49
2022/07/08 02:25:55;;;;;;;8.53;3.60;;;;;;;15.08;54.82;99828.88;4992388;28;20246;-49
2022/07/08 02:28:23;;;;;;;12.23;3.37;;;;;;;15.02;55.35;99827.66;4975120;28;20203;-49
2022/07/08 02:30:51;;;;;;;7.97;3.20;;;;;;;14.95;55.53;99837.97;4992745;28;20674;-49
2022/07/08 02:33:18;;;;;;;9.97;3.10;;;;;;;14.95;55.32;99842.38;4992365;28;20301;-49
2022/07/08 02:35:45;;;;;;;7.83;3.33;;;;;;;14.95;55.27;99834.47;4992864;28;20714;-49
2022/07/08 02:38:12;;;;;;;6.67;2.63;;;;;;;14.84;55.59;99836.34;4992497;28;20218;-49
2022/07/08 02:40:39;;;;;;;10.00;3.60;;;;;;;14.78;56.26;99841.38;4992780;28;20201;-49
2022/07/08 02:43:09;;;;;;;8.17;2.97;;;;;;;14.74;57.08;99836.44;4974795;28;20293;-49
2022/07/08 02:45:38;;;;;;;8.83;2.53;;;;;;;14.72;55.40;99841.00;4992748;28;20219;-49
2022/07/08 02:48:06;;;;;;;9.50;2.77;;;;;;;14.73;55.17;99841.84;4992694;28;20197;-49
2022/07/08 02:50:33;;;;;;;6.70;2.50;;;;;;;14.72;55.04;99829.69;4992659;28;20190;-49
2022/07/08 02:53:00;;;;;;;10.63;2.67;;;;;;;14.63;56.10;99828.72;4974563;28;20698;-49
2022/07/08 02:55:27;;;;;;;8.27;2.80;;;;;;;14.58;55.46;99841.47;4992670;28;20201;-49
2022/07/08 02:57:54;;;;;;;11.63;2.70;;;;;;;14.47;55.52;99840.69;4992663;28;20202;-48
2022/07/08 03:00:22;;;;;;;5.17;2.20;;;;;;;14.39;55.96;99845.84;4992635;28;20209;-49
2022/07/08 03:02:50;;;;;;;5.53;2.70;;;;;;;14.27;56.85;99849.66;4992265;28;20260;-51
2022/07/08 03:05:17;;;;;;;8.13;2.23;;;;;;;14.13;57.05;99837.81;4992309;28;20201;-50
2022/07/08 03:07:44;;;;;;;5.57;2.60;;;;;;;13.99;57.92;99845.16;4992455;28;20193;-49
2022/07/08 03:10:11;;;;;;;9.70;3.10;;;;;;;13.93;57.51;99842.31;4992538;28;20202;-49
2022/07/08 03:12:38;;;;;;;9.90;2.60;;;;;;;13.80;57.84;99848.69;4972326;28;20214;-49
2022/07/08 03:15:06;;;;;;;9.37;2.50;;;;;;;13.69;59.32;99849.69;4973064;28;20756;-49
2022/07/08 03:17:34;;;;;;;4.70;2.77;;;;;;;13.55;60.56;99847.50;4992482;28;20818;-49
2022/07/08 03:20:02;;;;;;;8.50;2.60;;;;;;;13.47;60.90;99855.22;4992453;28;20594;-49
2022/07/08 03:22:29;;;;;;;5.80;2.83;;;;;;;13.38;61.76;99856.84;4992101;28;20216;-49
2022/07/08 03:24:56;;;;;;;7.20;2.40;;;;;;;13.23;61.80;99857.28;4976071;28;20288;-49
2022/07/08 03:27:23;;;;;;;8.97;2.60;;;;;;;13.10;62.82;99864.59;4972940;28;20201;-49
2022/07/08 03:29:50;;;;;;;8.37;2.93;;;;;;;12.95;62.82;99861.50;4973082;28;20658;-52
2022/07/08 03:32:17;;;;;;;8.10;3.23;;;;;;;12.89;63.99;99862.91;4972436;28;20218;-52
2022/07/08 03:34:44;;;;;;;6.43;2.77;;;;;;;12.85;63.42;99870.19;4972800;28;20243;-52
2022/07/08 03:37:12;;;;;;;8.40;2.63;;;;;;;12.91;63.08;99870.59;4983504;28;20200;-52
2022/07/08 03:39:39;;;;;;;7.17;2.63;;;;;;;12.85;62.78;99875.44;4990266;28;20211;-49
2022/07/08 03:42:06;;;;;;;5.53;2.17;;;;;;;12.93;63.27;99876.53;4978957;28;20197;-49
2022/07/08 03:44:34;;;;;;;9.67;2.50;;;;;;;12.90;63.13;99869.78;4995784;28;20276;-50
2022/07/08 03:47:01;;;;;;;13.47;2.73;;;;;;;12.85;63.18;99869.38;4968974;28;20200;-49
2022/07/08 03:49:28;;;;;;;7.33;2.70;;;;;;;12.81;63.36;99873.22;4976031;28;20200;-50
2022/07/08 03:51:55;;;;;;;6.13;2.77;;;;;;;12.79;63.78;99881.19;4991771;28;20218;-49
2022/07/08 03:54:25;;;;;;;8.00;2.83;;;;;;;12.74;64.25;99875.53;4984152;28;20194;-49
2022/07/08 03:56:53;;;;;;;5.27;2.40;;;;;;;12.68;64.44;99878.72;4983964;28;20299;-50
2022/07/08 03:59:20;;;;;;;8.43;2.50;;;;;;;12.68;64.82;99881.34;4978026;28;20192;-49
2022/07/08 04:01:48;;;;;;;7.17;2.90;;;;;;;12.62;65.78;99879.25;4995483;28;20250;-49
2022/07/08 04:04:15;;;;;;;8.93;2.70;;;;;;;12.56;66.00;99875.34;4984465;28;20784;-50
2022/07/08 04:06:42;;;;;;;8.43;3.10;;;;;;;12.51;66.48;99878.38;4990259;28;20608;-49
2022/07/08 04:09:10;;;;;;;6.77;2.60;;;;;;;12.51;65.83;99882.78;4993329;28;20197;-50
2022/07/08 04:11:38;;;;;;;8.70;2.50;;;;;;;12.47;66.57;99882.22;4975791;28;20212;-50
2022/07/08 04:14:05;;;;;;;7.50;2.70;;;;;;;12.43;67.26;99875.59;4975304;28;20268;-49
2022/07/08 04:16:33;;;;;;;7.97;2.43;;;;;;;12.41;67.24;99880.13;4983877;28;20223;-50
2022/07/08 04:18:59;;;;;;;6.17;2.67;;;;;;;12.44;67.88;99886.88;4975560;28;20201;-49
2022/07/08 04:21:27;;;;;;;9.63;2.50;;;;;;;12.39;68.59;99885.50;4975617;28;20247;-49
2022/07/08 04:23:58;;;;;;;5.33;2.33;;;;;;;12.39;68.04;99879.44;4957772;28;20232;-51
2022/07/08 04:26:29;;;;;;;9.33;2.70;;;;;;;12.40;68.32;99883.72;4987759;28;20227;-50
2022/07/08 04:28:57;;;;;;;8.70;2.97;;;;;;;12.35;68.51;99888.50;4994774;28;20214;-52
2022/07/08 04:31:24;;;;;;;8.30;2.53;;;;;;;12.30;69.87;99895.94;4994832;28;20215;-50
2022/07/08 04:33:53;;;;;;;7.90;2.50;;;;;;;12.21;70.20;99892.28;4994359;28;20217;-52
2022/07/08 04:36:20;;;;;;;7.73;3.00;;;;;;;12.17;71.01;99896.16;4994765;28;20695;-49
2022/07/08 04:38:48;;;;;;;4.57;2.40;;;;;;;12.17;70.98;99901.38;4994521;28;20208;-49
2022/07/08 04:41:15;;;;;;;10.77;2.93;;;;;;;12.09;71.31;99895.00;4990009;28;20199;-49
2022/07/08 04:43:43;;;;;;;6.90;3.20;;;;;;;12.05;72.23;99905.84;4982383;28;20215;-49
2022/07/08 04:46:12;;;;;;;11.40;2.90;;;;;;;12.03;72.34;99905.16;4984355;28;20697;-49
2022/07/08 04:48:40;;;;;;;8.07;3.27;;;;;;;12.04;71.80;99905.03;4992381;28;20191;-49
2022/07/08 04:51:08;;;;;;;6.63;2.90;;;;;;;12.03;73.02;99899.91;4993637;28;20195;-50
2022/07/08 04:53:35;;;;;;;11.47;3.10;;;;;;;11.99;72.93;99906.34;4975106;28;20271;-49
2022/07/08 04:56:02;;;;;;;8.93;2.73;;;;;;;12.03;74.24;99913.00;4986256;28;20203;-49
2022/07/08 04:58:29;;;;;;;11.60;2.67;;;;;;;12.03;73.93;99913.00;4986130;28;20192;-49
2022/07/08 05:00:57;;;;;;;6.40;2.87;;;;;;;12.03;73.54;99916.47;4986256;28;20269;-49
2022/07/08 05:03:25;;;;;;;7.53;2.90;;;;;;;12.02;73.39;99909.56;4985825;28;20294;-49
2022/07/08 05:05:52;;;;;;;5.03;2.60;;;;;;;12.08;73.29;99911.69;4994055;28;20249;-49
2022/07/08 05:08:20;;;;;;;7.47;2.67;;;;;;;12.06;73.68;99910.97;4977525;28;20612;-49
2022/07/08 05:10:48;;;;;;;11.63;3.00;;;;;;;12.06;73.37;99904.91;4978704;28;20200;-49
2022/07/08 05:13:15;;;;;;;10.53;2.77;;;;;;;12.10;74.25;99909.75;4981665;28;20219;-49
2022/07/08 05:15:42;;;;;;;8.33;2.90;;;;;;;12.10;74.10;99916.75;4982103;28;20203;-49
2022/07/08 05:18:09;;;;;;;9.70;2.97;;;;;;;12.11;74.62;99915.81;4982100;28;20222;-50
2022/07/08 05:20:37;;;;;;;9.63;2.57;;;;;;;12.16;74.67;99907.59;4987913;28;20199;-50
2022/07/08 05:23:05;;;;;;;9.77;2.70;;;;;;;12.20;73.50;99915.03;4993364;28;20207;-49
2022/07/08 05:25:32;;;;;;;7.90;2.83;;;;;;;12.20;73.41;99916.81;4994034;28;20680;-49
2022/07/08 05:27:59;;;;;;;12.30;3.30;;;;;;;12.24;74.39;99913.81;4994006;28;20195;-49
2022/07/08 05:30:27;;;;;;;8.50;2.80;;;;;;;12.32;73.73;99909.72;4993587;28;20264;-49
2022/07/08 05:32:54;;;;;;;6.17;2.90;;;;;;;12.37;73.45;99904.91;4993343;28;20220;-49
2022/07/08 05:35:21;;;;;;;6.37;2.80;;;;;;;12.36;73.40;99917.16;4993346;28;20258;-49
2022/07/08 05:37:49;;;;;;;8.60;3.10;;;;;;;12.44;72.65;99915.69;4993695;28;20186;-49
2022/07/08 05:40:16;;;;;;;7.87;2.47;;;;;;;12.52;71.60;99921.09;4993945;28;20263;-50
2022/07/08 05:42:43;;;;;;;4.57;2.40;;;;;;;12.57;72.32;99918.91;4993425;28;20202;-49
2022/07/08 05:45:13;;;;;;;7.13;2.50;;;;;;;12.63;72.45;99914.97;4976124;28;20190;-49
2022/07/08 05:47:40;;;;;;;9.27;2.90;;;;;;;12.79;72.21;99924.94;4993563;28;20192;-49
2022/07/08 05:50:08;;;;;;;8.80;2.63;;;;;;;13.07;72.43;99930.38;4993286;28;20532;-50
2022/07/08 05:52:36;;;;;;;7.00;2.40;;;;;;;13.28;71.18;99935.53;4993125;28;20270;-49
2022/07/08 05:55:05;;;;;;;11.87;2.60;;;;;;;13.43;68.30;99935.97;4993347;28;20196;-49
2022/07/08 05:57:32;;;;;;;5.83;2.37;;;;;;;13.66;68.86;99939.19;4993446;28;20271;-50
2022/07/08 06:00:00;;;;;;;5.80;2.40;;;;;;;13.84;67.97;99935.81;4992676;28;20191;-49
2022/07/08 06:02:27;;;;;;;9.40;2.60;;;;;;;14.02;67.09;99941.22;4993038;28;20211;-49
2022/07/08 06:04:55;;;;;;;10.97;2.37;;;;;;;14.24;66.41;99942.69;4993441;28;20192;-49
2022/07/08 06:07:21;;;;;;;8.87;2.60;;;;;;;14.44;64.33;99945.25;4993278;28;20578;-49
2022/07/08 06:09:48;;;;;;;7.50;2.40;;;;;;;14.69;62.17;99937.69;4993181;28;20199;-51
2022/07/08 06:12:18;;;;;;;4.33;2.13;;;;;;;14.93;62.12;99945.06;4992742;28;20288;-49
2022/07/08 06:14:45;;;;;;;7.70;2.47;;;;;;;15.07;60.19;99946.38;4993114;28;20195;-49
2022/07/08 06:17:12;;;;;;;6.17;1.83;;;;;;;15.24;59.15;99946.53;4975566;28;20191;-49
2022/07/08 06:19:39;;;;;;;9.43;2.30;;;;;;;15.13;58.85;99952.84;4993004;28;20231;-48
2022/07/08 06:22:06;;;;;;;7.73;2.10;;;;;;;15.07;58.01;99949.00;4992757;28;20189;-49
2022/07/08 06:24:34;;;;;;;13.37;2.07;;;;;;;15.23;57.44;99961.50;4993089;28;20658;-49
2022/07/08 06:27:00;;;;;;;9.47;2.10;;;;;;;15.36;57.04;99966.41;4992970;28;20188;-49
2022/07/08 06:29:29;;;;;;;7.27;2.10;;;;;;;15.47;56.89;99960.09;4992737;28;20193;-50
2022/07/08 06:31:56;;;;;;;6.50;2.10;;;;;;;15.59;56.48;99956.25;4992540;28;20202;-49
2022/07/08 06:34:24;;;;;;;8.97;2.17;;;;;;;15.62;55.73;99961.22;4992997;28;20188;-50
2022/07/08 06:36:51;;;;;;;10.47;2.00;;;;;;;15.63;55.78;99960.22;4992937;28;20194;-52
2022/07/08 06:39:19;;;;;;;8.50;1.97;;;;;;;15.63;55.81;99962.06;4992860;28;20662;-49
2022/07/08 06:41:46;;;;;;;6.40;2.40;;;;;;;15.85;55.45;99958.13;4992932;28;20222;-50
2022/07/08 06:44:13;;;;;;;6.50;2.07;;;;;;;15.83;54.79;99965.34;4992512;28;20217;-49
2022/07/08 06:46:41;;;;;;;5.60;1.93;;;;;;;15.68;54.97;99961.59;4992884;28;20184;-49
2022/07/08 06:49:09;;;;;;;7.83;2.03;;;;;;;15.85;54.75;99965.22;4992921;28;20234;-49
2022/07/08 06:51:36;;;;;;;5.50;1.83;;;;;;;15.85;54.82;99966.03;4992826;28;20656;-49
2022/07/08 06:56:49;;;;;;;7.20;2.17;;;;;;;15.99;54.20;99969.94;4992800;28;20198;-50
2022/07/08 06:59:16;;;;;;;5.57;2.03;;;;;;;16.04;54.06;99964.22;4992656;28;20654;-49
2022/07/08 07:01:45;;;;;;;6.47;2.10;;;;;;;16.02;54.08;99972.25;4992552;28;20188;-49
2022/07/08 07:04:12;;;;;;;6.67;2.03;;;;;;;15.91;53.70;99975.13;4992469;28;20262;-52
2022/07/08 07:06:39;;;;;;;5.97;2.00;;;;;;;16.11;53.26;99970.53;4992688;28;20219;-51
2022/07/08 07:09:06;;;;;;;6.53;1.90;;;;;;;16.26;53.61;99962.88;4992503;28;20186;-49
2022/07/08 07:11:33;;;;;;;7.20;1.90;;;;;;;16.18;52.82;99968.09;4994439;28;20647;-49
2022/07/08 07:14:01;;;;;;;5.23;2.00;;;;;;;16.24;53.51;99978.03;4978309;28;20255;-50
2022/07/08 07:16:28;;;;;;;5.67;2.00;;;;;;;16.23;53.23;99979.84;4996349;28;20191;-49
2022/07/08 07:18:57;;;;;;;7.30;2.43;;;;;;;16.28;53.25;99981.19;4996472;28;20199;-49
2022/07/08 07:21:23;;;;;;;4.97;2.10;;;;;;;16.46;52.79;99979.31;4996343;28;20615;-49
2022/07/08 07:23:51;;;;;;;4.10;1.90;;;;;;;16.67;51.86;99988.66;4995780;28;20751;-49
2022/07/08 07:26:18;;;;;;;8.57;1.93;;;;;;;16.66;52.32;99987.00;4978510;28;20193;-49
2022/07/08 07:28:46;;;;;;;7.17;2.17;;;;;;;16.79;51.07;99986.56;4972597;28;20341;-51
2022/07/08 07:31:14;;;;;;;9.37;1.90;;;;;;;16.99;50.57;99988.97;4987867;28;20197;-49
2022/07/08 07:33:41;;;;;;;8.03;1.93;;;;;;;16.92;50.43;99986.13;4989467;28;20299;-50
2022/07/08 07:36:09;;;;;;;5.20;1.93;;;;;;;16.96;51.36;99984.81;4994102;28;20611;-50
2022/07/08 07:38:43;;;;;;;8.27;2.10;;;;;;;17.05;50.53;99990.97;4987732;28;20630;-50
2022/07/08 07:41:24;;;;;;;7.60;1.87;;;;;;;17.11;49.79;99992.97;5011018;28;20223;-50
2022/07/08 07:43:52;;;;;;;9.23;2.50;;;;;;;16.98;50.36;99988.16;5023526;28;20266;-49
2022/07/08 07:46:19;;;;;;;8.23;1.93;;;;;;;17.09;50.39;99979.13;5017247;28;20227;-49
2022/07/08 07:48:46;;;;;;;4.73;1.90;;;;;;;17.13;52.27;99987.56;5016969;28;20193;-50
2022/07/08 07:51:15;;;;;;;9.30;2.30;;;;;;;17.17;51.66;99984.41;5008040;28;20235;-49
2022/07/08 07:53:42;;;;;;;6.53;1.93;;;;;;;17.38;50.14;99978.72;5034683;28;20216;-50
2022/07/08 07:56:10;;;;;;;6.43;1.90;;;;;;;17.31;49.95;99987.44;5035119;28;20275;-50
2022/07/08 07:58:38;;;;;;;7.50;2.20;;;;;;;17.33;49.23;99981.03;5034945;28;20193;-50
2022/07/08 08:01:05;;;;;;;7.33;2.03;;;;;;;17.36;51.18;99980.69;5034777;28;20186;-50
2022/07/08 08:03:33;;;;;;;11.97;2.33;;;;;;;17.45;49.85;99981.53;5016636;28;20220;-49
2022/07/08 08:06:00;;;;;;;6.80;2.00;;;;;;;17.46;49.10;99990.28;5034818;28;20644;-49
2022/07/08 08:08:31;;;;;;;7.27;2.10;;;;;;;17.45;51.24;99978.06;5034774;28;20184;-49
2022/07/08 08:10:59;;;;;;;6.53;2.00;;;;;;;17.52;49.99;99990.44;5034673;28;20223;-49
2022/07/08 08:13:26;;;;;;;5.83;1.97;;;;;;;17.67;51.00;99984.53;5034371;28;20228;-49
2022/07/08 08:15:54;;;;;;;6.77;1.93;;;;;;;17.68;49.95;99983.53;5034640;28;20189;-50
2022/07/08 08:18:21;;;;;;;7.50;1.87;;;;;;;17.76;49.19;99986.19;5034699;28;20240;-50
2022/07/08 08:20:48;;;;;;;5.73;2.10;;;;;;;17.86;49.35;99983.38;5034616;28;20553;-50
2022/07/08 08:23:16;;;;;;;7.70;1.73;;;;;;;17.90;49.39;99987.34;5033724;28;20198;-50
2022/07/08 08:25:44;;;;;;;6.13;2.03;;;;;;;18.07;49.57;99992.66;5034718;28;20695;-49
2022/07/08 08:28:11;;;;;;;7.00;1.67;;;;;;;18.08;49.64;99989.03;5034454;28;20223;-49
2022/07/08 08:30:39;;;;;;;6.00;2.20;;;;;;;17.91;49.91;99989.00;5034310;28;20657;-49
2022/07/08 08:33:06;;;;;;;12.57;2.43;;;;;;;18.02;48.52;99989.69;5033985;28;20217;-50
2022/07/08 08:35:33;;;;;;;7.93;2.73;;;;;;;17.95;48.63;99986.84;5034408;28;20192;-50
2022/07/08 08:38:00;;;;;;;5.18;1.90;;;;;;;18.19;47.61;99985.19;5033236;28;20544;-50
2022/07/08 08:40:29;;;;;;;6.73;2.10;;;;;;;18.24;48.66;99980.25;5034157;28;20210;-50
2022/07/08 08:42:58;;;;;;;6.07;2.30;;;;;;;18.32;47.63;99972.28;5033873;28;20211;-50
2022/07/08 08:45:27;;;;;;;6.20;2.67;;;;;;;18.32;47.39;99971.50;5034048;28;20193;-50
2022/07/08 08:47:57;;;;;;;5.43;2.10;;;;;;;18.51;47.71;99975.56;5034110;28;20201;-50
2022/07/08 08:53:14;;;;;;;6.37;2.30;;;;;;;18.50;47.48;99965.97;5033741;28;20707;-50
2022/07/08 08:55:43;;;;;;;7.47;2.10;;;;;;;18.52;47.42;99966.63;5034021;28;20199;-49
2022/07/08 08:58:11;;;;;;;5.63;1.80;;;;;;;18.52;47.49;99964.84;5033884;28;20199;-50
2022/07/08 09:00:38;;;;;;;3.97;1.90;;;;;;;18.68;46.58;99968.38;5033999;28;20191;-50
2022/07/08 09:03:06;;;;;;;4.63;2.40;;;;;;;18.52;45.36;99969.28;5033419;28;20209;-49
2022/07/08 09:05:34;;;;;;;10.83;2.43;;;;;;;18.16;46.29;99962.59;5034125;28;20188;-50
2022/07/08 09:08:01;;;;;;;4.13;2.03;;;;;;;18.33;46.50;99960.72;5033680;28;20635;-50
2022/07/08 09:10:28;;;;;;;5.63;2.10;;;;;;;18.24;47.42;99962.56;5033651;28;20677;-50
2022/07/08 09:13:04;;;;;;;8.50;2.00;;;;;;;18.23;48.51;99960.94;5033252;28;20237;-50
2022/07/08 09:15:35;;;;;;;4.90;1.83;;;;;;;18.42;48.06;99965.00;5015959;28;20197;-50
2022/07/08 09:18:04;;;;;;;7.63;1.97;;;;;;;18.50;47.86;99955.41;5033727;28;20265;-49
2022/07/08 09:20:39;;;;;;;8.30;2.20;;;;;;;18.63;47.94;99960.16;5033619;28;20191;-50
2022/07/08 09:23:11;;;;;;;5.23;1.90;;;;;;;18.61;48.08;99964.78;5033274;28;20275;-49
2022/07/08 09:25:38;;;;;;;6.83;2.07;;;;;;;18.54;46.96;99959.38;5033511;28;20182;-49
2022/07/08 09:28:05;;;;;;;8.57;2.57;;;;;;;18.67;47.39;99962.28;5033597;28;20225;-49
2022/07/08 09:30:34;;;;;;;7.47;2.30;;;;;;;18.72;47.64;99965.25;5015632;28;20197;-50
2022/07/08 09:33:04;;;;;;;7.43;1.73;;;;;;;18.68;47.48;99960.47;5032912;28;20242;-50
2022/07/08 09:35:33;;;;;;;5.17;2.13;;;;;;;18.44;47.45;99952.44;5032842;28;20558;-49
2022/07/08 09:38:07;;;;;;;4.90;2.00;;;;;;;18.75;47.57;99964.06;5033220;28;20229;-50
2022/07/08 09:40:35;;;;;;;6.37;2.37;;;;;;;18.80;46.26;99966.22;5033035;28;20251;-50
2022/07/08 09:43:11;;;;;;;6.30;1.97;;;;;;;18.94;46.89;99956.72;5021642;28;20219;-50
2022/07/08 09:45:40;;;;;;;11.30;2.27;;;;;;;18.78;45.14;99955.78;4985828;28;20205;-50
2022/07/08 09:48:09;;;;;;;4.93;1.80;;;;;;;18.75;45.94;99961.44;5004574;28;20183;-49
2022/07/08 09:50:38;;;;;;;3.37;2.00;;;;;;;18.69;46.14;99965.59;5002971;28;20272;-50
2022/07/08 09:53:13;;;;;;;8.90;2.27;;;;;;;18.74;47.22;99963.25;4975893;28;21168;-50
2022/07/08 09:55:41;;;;;;;6.20;2.00;;;;;;;18.85;46.55;99958.59;5007571;28;20195;-49
2022/07/08 09:58:28;;;;;;;4.83;1.90;;;;;;;19.12;46.68;99953.84;5004806;28;20402;-49
2022/07/08 10:01:00;;;;;;;6.20;2.60;;;;;;;19.21;45.57;99971.31;5010193;28;20612;-50
2022/07/08 10:03:28;;;;;;;6.27;2.30;;;;;;;19.00;45.26;99971.94;5012141;28;20210;-51
2022/07/08 10:05:55;;;;;;;8.73;2.07;;;;;;;18.85;46.18;99985.03;5012444;28;20196;-49
2022/07/08 10:08:23;;;;;;;7.63;2.37;;;;;;;18.64;46.24;99981.16;5012299;28;20199;-49
2022/07/08 10:10:53;;;;;;;5.83;2.30;;;;;;;18.71;46.63;99990.06;5020420;28;20227;-49
2022/07/08 10:13:21;;;;;;;6.73;2.20;;;;;;;18.72;46.67;99975.00;5019895;28;20213;-49
2022/07/08 10:15:50;;;;;;;6.17;2.10;;;;;;;18.97;47.36;99983.72;5016276;28;20579;-50
2022/07/08 10:18:21;;;;;;;3.97;1.80;;;;;;;18.92;46.14;99967.50;5015329;28;20197;-49
2022/07/08 10:20:51;;;;;;;2.60;1.63;;;;;;;19.00;45.92;99970.13;5023991;28;20285;-49
2022/07/08 10:23:22;;;;;;;9.87;2.03;;;;;;;19.06;45.77;99962.50;5032249;28;20211;-49
2022/07/08 10:25:51;;;;;;;3.67;1.80;;;;;;;19.34;45.46;99965.47;5032443;28;20273;-49
2022/07/08 10:28:18;;;;;;;7.27;1.70;;;;;;;19.48;45.59;99977.13;5032401;28;20199;-49
2022/07/08 10:30:48;;;;;;;4.60;1.90;;;;;;;19.54;45.90;99970.31;5014559;28;20191;-49
2022/07/08 10:33:23;;;;;;;5.40;2.30;;;;;;;19.67;44.89;99967.06;5021400;28;20236;-49
2022/07/08 10:36:08;;;;;;;4.73;1.50;;;;;;;19.74;43.76;99976.75;5012533;28;20204;-49
2022/07/08 10:38:37;;;;;;;6.93;2.00;;;;;;;19.63;44.80;99966.56;5012652;28;20203;-52
2022/07/08 10:41:07;;;;;;;5.07;2.00;;;;;;;19.74;43.96;99962.69;5020201;28;20242;-49
2022/07/08 10:43:34;;;;;;;6.33;1.90;;;;;;;19.62;43.70;99973.72;5011346;28;20212;-50
2022/07/08 10:46:10;;;;;;;6.77;1.83;;;;;;;19.59;43.56;99971.41;5012208;28;20192;-51
2022/07/08 10:48:49;;;;;;;4.53;1.70;;;;;;;19.85;43.33;99970.22;5009793;28;20227;-50
2022/07/08 10:51:47;;;;;;;6.97;1.80;;;;;;;19.69;42.70;99971.16;5026977;28;20261;-50
2022/07/08 10:54:28;;;;;;;5.23;1.67;;;;;;;19.51;43.08;99978.59;4974242;28;20242;-50
2022/07/08 10:56:58;;;;;;;8.97;1.83;;;;;;;19.52;42.91;99972.31;5019690;28;20189;-49
2022/07/08 10:59:27;;;;;;;8.33;1.97;;;;;;;19.60;43.92;99967.75;5022750;28;20255;-49
2022/07/08 11:01:56;;;;;;;4.77;1.70;;;;;;;19.81;43.73;99957.50;5015964;28;20203;-49
2022/07/08 11:04:29;;;;;;;5.93;2.17;;;;;;;20.05;43.30;99965.28;5015991;28;20189;-49
2022/07/08 11:07:25;;;;;;;8.30;2.30;;;;;;;19.69;42.01;99973.00;4998309;28;20563;-49
2022/07/08 11:09:54;;;;;;;5.53;1.73;;;;;;;19.92;42.98;99965.06;5015934;28;20283;-49
2022/07/08 11:12:25;;;;;;;3.37;1.60;;;;;;;19.99;42.63;99973.13;5010988;28;20285;-50
2022/07/08 11:14:54;;;;;;;5.50;1.73;;;;;;;19.98;42.09;99961.69;5019915;28;20226;-49
2022/07/08 11:17:24;;;;;;;6.67;1.80;;;;;;;20.21;42.70;99971.44;5024092;28;20189;-50
2022/07/08 11:19:55;;;;;;;8.40;2.83;;;;;;;20.33;42.25;99963.84;5022751;28;20199;-52
2022/07/08 11:22:23;;;;;;;6.37;1.50;;;;;;;20.40;42.65;99964.75;5021271;28;20219;-49
2022/07/08 11:24:51;;;;;;;5.83;1.53;;;;;;;20.25;42.23;99970.06;5026908;28;20611;-48
2022/07/08 11:27:23;;;;;;;4.57;1.43;;;;;;;20.03;41.97;99975.22;5018729;28;20229;-48
2022/07/08 11:29:52;;;;;;;8.10;1.63;;;;;;;20.03;41.34;99975.22;5014217;28;20234;-49
2022/07/08 11:32:37;;;;;;;2.87;1.63;;;;;;;20.29;42.01;99979.28;5010071;28;20230;-49
2022/07/08 11:35:07;;;;;;;4.13;1.47;;;;;;;20.43;40.29;99967.03;5009347;28;20219;-49
2022/07/08 11:37:40;;;;;;;5.33;1.67;;;;;;;20.47;41.17;99972.81;5014773;28;20657;-49
2022/07/08 11:40:08;;;;;;;5.60;1.63;;;;;;;20.59;41.08;99975.84;5014747;28;20674;-49
2022/07/08 11:42:53;;;;;;;5.17;1.53;;;;;;;20.64;41.70;99976.94;5014618;28;20223;-49
2022/07/08 11:45:20;;;;;;;5.73;1.40;;;;;;;20.54;40.64;99987.00;5014815;28;20218;-49